Time;durP1;ratioP1;P1;durP2;ratioP2;P2;SDS_P1;SDS_P2;PMS_P1;PMS_P2;Temp;Humidity;BMP_temperature;BMP_pressure;BME280_temperature;BME280_humidity;BME280_pressure;Samples;Min_cycle;Max_cycle;Signal;HPM_P1;HPM_P2
2022/08/01 00:02:04;;;;;;;;;;;19.20;99.90;;;;;;5073515;28;19916;-68
2022/08/01 00:04:29;;;;;;;;;;;19.20;99.90;;;;;;5073764;28;19916;-68
2022/08/01 00:06:55;;;;;;;;;;;19.20;99.90;;;;;;5073679;28;19987;-68
2022/08/01 00:09:20;;;;;;;;;;;19.20;99.90;;;;;;5073726;28;20379;-68
2022/08/01 00:11:46;;;;;;;;;;;19.20;99.90;;;;;;5073426;28;19909;-68
2022/08/01 00:14:11;;;;;;;;;;;19.20;99.90;;;;;;5038841;28;20381;-68
2022/08/01 00:16:37;;;;;;;;;;;19.20;99.90;;;;;;5055378;28;19916;-68
2022/08/01 00:19:03;;;;;;;;;;;19.20;99.90;;;;;;5073610;28;19908;-68
2022/08/01 00:21:29;;;;;;;;;;;19.20;99.90;;;;;;5073291;28;20390;-68
2022/08/01 00:23:54;;;;;;;;;;;19.20;99.90;;;;;;5073543;28;19915;-68
2022/08/01 00:26:19;;;;;;;;;;;19.20;99.90;;;;;;5073265;28;19999;-68
2022/08/01 00:28:45;;;;;;;;;;;19.20;99.90;;;;;;5073128;28;20367;-68
2022/08/01 00:31:11;;;;;;;;;;;19.20;99.90;;;;;;5073169;28;19909;-68
2022/08/01 00:33:36;;;;;;;;;;;19.20;99.90;;;;;;5055313;28;19909;-68
2022/08/01 00:36:02;;;;;;;;;;;19.20;99.90;;;;;;5073394;28;19908;-68
2022/08/01 00:38:27;;;;;;;;;;;19.20;99.90;;;;;;5073405;28;20366;-68
2022/08/01 00:40:53;;;;;;;;;;;19.20;99.90;;;;;;5073412;28;20287;-68
2022/08/01 00:43:18;;;;;;;;;;;19.20;99.90;;;;;;5073057;28;20383;-68
2022/08/01 00:45:44;;;;;;;;;;;19.20;99.90;;;;;;5073474;28;19916;-68
2022/08/01 00:48:09;;;;;;;;;;;19.20;99.90;;;;;;5076748;28;20375;-68
2022/08/01 00:50:35;;;;;;;;;;;19.20;99.90;;;;;;5076799;28;19908;-68
2022/08/01 00:53:01;;;;;;;;;;;19.20;99.90;;;;;;5076796;28;19916;-68
2022/08/01 00:55:27;;;;;;;;;;;19.20;99.90;;;;;;5076952;28;19990;-68
2022/08/01 00:57:53;;;;;;;;;;;19.20;99.90;;;;;;5058820;28;20275;-68
2022/08/01 01:00:18;;;;;;;;;;;19.10;99.90;;;;;;5076601;28;19951;-68
2022/08/01 01:02:44;;;;;;;;;;;19.20;99.90;;;;;;5076869;28;20405;-68
2022/08/01 01:05:09;;;;;;;;;;;19.10;99.90;;;;;;5076796;28;20279;-68
2022/08/01 01:07:42;;;;;;;;;;;19.10;99.90;;;;;;5076444;28;19919;-68
2022/08/01 01:10:11;;;;;;;;;;;19.10;99.90;;;;;;5076688;28;19965;-68
2022/08/01 01:12:42;;;;;;;;;;;19.00;99.90;;;;;;5058548;28;19909;-68
2022/08/01 01:15:09;;;;;;;;;;;19.00;99.90;;;;;;5076379;28;19920;-68
2022/08/01 01:17:55;;;;;;;;;;;19.00;99.90;;;;;;5076309;28;20046;-68
2022/08/01 01:20:23;;;;;;;;;;;19.00;99.90;;;;;;5076069;28;19908;-68
2022/08/01 01:25:41;;;;;;;;;;;19.00;99.90;;;;;;5071089;28;19954;-68
2022/08/01 01:28:12;;;;;;;;;;;19.00;99.90;;;;;;5071224;28;19978;-68
2022/08/01 01:30:38;;;;;;;;;;;19.00;99.90;;;;;;5071169;28;19909;-68
2022/08/01 01:33:06;;;;;;;;;;;19.00;99.90;;;;;;5070792;28;19909;-68
2022/08/01 01:35:33;;;;;;;;;;;19.00;99.90;;;;;;5070840;28;19909;-68
2022/08/01 01:38:01;;;;;;;;;;;19.10;99.90;;;;;;5070773;28;19909;-68
2022/08/01 01:40:27;;;;;;;;;;;19.10;99.90;;;;;;5070974;28;19916;-68
2022/08/01 01:42:53;;;;;;;;;;;19.10;99.90;;;;;;5070937;28;19909;-68
2022/08/01 01:45:19;;;;;;;;;;;19.00;99.90;;;;;;5070808;28;19913;-68
2022/08/01 01:47:45;;;;;;;;;;;19.00;99.90;;;;;;5070543;28;19958;-68
2022/08/01 01:50:12;;;;;;;;;;;19.10;99.90;;;;;;5070502;28;19913;-68
2022/08/01 01:52:39;;;;;;;;;;;19.10;99.90;;;;;;5070739;28;20363;-68
2022/08/01 01:55:06;;;;;;;;;;;19.10;99.90;;;;;;5070391;28;19916;-68
2022/08/01 01:57:32;;;;;;;;;;;19.10;99.90;;;;;;5070399;28;19909;-68
2022/08/01 01:59:59;;;;;;;;;;;19.10;99.90;;;;;;5070224;28;20004;-68
2022/08/01 02:02:25;;;;;;;;;;;19.00;99.90;;;;;;5070562;28;19916;-68
2022/08/01 02:04:52;;;;;;;;;;;19.00;99.90;;;;;;5086039;28;20003;-68
2022/08/01 02:07:20;;;;;;;;;;;19.00;99.90;;;;;;5070443;28;19908;-68
2022/08/01 02:09:46;;;;;;;;;;;18.80;99.90;;;;;;5070136;28;19912;-68
2022/08/01 02:12:12;;;;;;;;;;;18.80;99.90;;;;;;5085797;28;19999;-68
2022/08/01 02:14:40;;;;;;;;;;;18.80;99.90;;;;;;5069950;28;19967;-68
2022/08/01 02:17:05;;;;;;;;;;;18.80;99.90;;;;;;5070237;28;19962;-68
2022/08/01 02:19:32;;;;;;;;;;;18.80;99.90;;;;;;5069952;28;20379;-68
2022/08/01 02:22:01;;;;;;;;;;;18.70;99.90;;;;;;5069800;28;19966;-67
2022/08/01 02:24:31;;;;;;;;;;;18.60;99.90;;;;;;5080786;28;19924;-67
2022/08/01 02:26:59;;;;;;;;;;;18.60;99.90;;;;;;5090089;28;19915;-68
2022/08/01 02:29:27;;;;;;;;;;;18.60;99.90;;;;;;5090243;28;19908;-67
2022/08/01 02:31:54;;;;;;;;;;;18.60;99.90;;;;;;5090196;28;20359;-68
2022/08/01 02:34:20;;;;;;;;;;;18.60;99.90;;;;;;5071792;28;19908;-67
2022/08/01 02:36:47;;;;;;;;;;;18.50;99.90;;;;;;5059297;28;19916;-68
2022/08/01 02:39:14;;;;;;;;;;;18.50;99.90;;;;;;5076238;28;20003;-67
2022/08/01 02:41:42;;;;;;;;;;;18.50;99.90;;;;;;5076503;28;20056;-67
2022/08/01 02:44:09;;;;;;;;;;;18.50;99.90;;;;;;5076396;28;20363;-67
2022/08/01 02:46:45;;;;;;;;;;;18.40;99.90;;;;;;5076229;28;19908;-67
2022/08/01 02:49:10;;;;;;;;;;;18.40;99.90;;;;;;5076106;28;19909;-68
2022/08/01 02:51:37;;;;;;;;;;;18.40;99.90;;;;;;5076339;28;19908;-67
2022/08/01 02:54:03;;;;;;;;;;;18.50;99.90;;;;;;5076158;28;20347;-67
2022/08/01 02:56:34;;;;;;;;;;;18.40;99.90;;;;;;5076023;28;19909;-67
2022/08/01 02:59:02;;;;;;;;;;;18.40;99.90;;;;;;5075956;28;19955;-67
2022/08/01 03:01:27;;;;;;;;;;;18.40;99.90;;;;;;5076158;28;20357;-68
2022/08/01 03:03:53;;;;;;;;;;;18.40;99.90;;;;;;5076127;28;20015;-68
2022/08/01 03:06:19;;;;;;;;;;;18.40;99.90;;;;;;5075837;28;19915;-68
2022/08/01 03:08:45;;;;;;;;;;;18.40;99.90;;;;;;5076003;28;19908;-68
2022/08/01 03:11:12;;;;;;;;;;;18.40;99.90;;;;;;5075997;28;20473;-68
2022/08/01 03:13:38;;;;;;;;;;;18.40;99.90;;;;;;5075920;28;20053;-68
2022/08/01 03:16:04;;;;;;;;;;;18.40;99.90;;;;;;5057836;28;20393;-68
2022/08/01 03:18:30;;;;;;;;;;;18.40;99.90;;;;;;5075598;28;20003;-68
2022/08/01 03:20:56;;;;;;;;;;;18.30;99.90;;;;;;5075875;28;19935;-68
2022/08/01 03:23:22;;;;;;;;;;;18.30;99.90;;;;;;5075465;28;19987;-68
2022/08/01 03:25:49;;;;;;;;;;;18.40;99.90;;;;;;5075675;28;19931;-68
2022/08/01 03:28:15;;;;;;;;;;;18.30;99.90;;;;;;5075393;28;20367;-68
2022/08/01 03:30:42;;;;;;;;;;;18.30;99.90;;;;;;5075394;28;20003;-68
2022/08/01 03:33:07;;;;;;;;;;;18.30;99.90;;;;;;5075321;28;19935;-68
2022/08/01 03:35:34;;;;;;;;;;;18.30;99.90;;;;;;5075285;28;19912;-68
2022/08/01 03:38:00;;;;;;;;;;;18.30;99.90;;;;;;5057406;28;19915;-68
2022/08/01 03:40:43;;;;;;;;;;;18.30;99.90;;;;;;5075209;28;19919;-68
2022/08/01 03:43:12;;;;;;;;;;;18.30;99.90;;;;;;5075046;28;19908;-68
2022/08/01 03:45:39;;;;;;;;;;;18.30;99.90;;;;;;5057468;28;19939;-68
2022/08/01 03:48:08;;;;;;;;;;;18.30;99.90;;;;;;5056241;28;19909;-68
2022/08/01 03:50:35;;;;;;;;;;;18.20;99.90;;;;;;5057166;28;19908;-68
2022/08/01 03:53:02;;;;;;;;;;;18.30;99.90;;;;;;5075157;28;19958;-68
2022/08/01 03:55:28;;;;;;;;;;;18.30;99.90;;;;;;5074825;28;19908;-68
2022/08/01 03:57:54;;;;;;;;;;;18.30;99.90;;;;;;5075054;28;19909;-68
2022/08/01 04:00:19;;;;;;;;;;;18.30;99.90;;;;;;5075010;28;19915;-68
2022/08/01 04:02:46;;;;;;;;;;;18.30;99.90;;;;;;5074926;28;20007;-67
2022/08/01 04:05:11;;;;;;;;;;;18.30;99.90;;;;;;5056739;28;19912;-68
2022/08/01 04:07:38;;;;;;;;;;;18.30;99.90;;;;;;5074494;28;19916;-68
2022/08/01 04:10:04;;;;;;;;;;;18.30;99.90;;;;;;5074458;28;19915;-68
2022/08/01 04:12:30;;;;;;;;;;;18.30;99.90;;;;;;5074753;28;19909;-68
2022/08/01 04:14:55;;;;;;;;;;;18.30;99.90;;;;;;5074714;28;19912;-68
2022/08/01 04:17:21;;;;;;;;;;;18.30;99.90;;;;;;5074340;28;19908;-68
2022/08/01 04:19:46;;;;;;;;;;;18.20;99.90;;;;;;5074320;28;20286;-68
2022/08/01 04:22:13;;;;;;;;;;;18.30;99.90;;;;;;5074298;28;19909;-68
2022/08/01 04:24:39;;;;;;;;;;;18.30;99.90;;;;;;5073974;28;19921;-68
2022/08/01 04:27:05;;;;;;;;;;;18.30;99.90;;;;;;5074484;28;19909;-68
2022/08/01 04:29:32;;;;;;;;;;;18.30;99.90;;;;;;5074458;28;19958;-68
2022/08/01 04:32:00;;;;;;;;;;;18.30;99.90;;;;;;5074153;28;19970;-68
2022/08/01 04:34:28;;;;;;;;;;;18.40;99.90;;;;;;5074365;28;19950;-68
2022/08/01 04:36:55;;;;;;;;;;;18.30;99.90;;;;;;5074357;28;19915;-68
2022/08/01 04:39:21;;;;;;;;;;;18.30;99.90;;;;;;5074288;28;19908;-68
2022/08/01 04:41:47;;;;;;;;;;;18.30;99.90;;;;;;5074246;28;20325;-68
2022/08/01 04:44:13;;;;;;;;;;;18.30;99.90;;;;;;5074127;28;19912;-68
2022/08/01 04:46:39;;;;;;;;;;;18.30;99.90;;;;;;5074198;28;20366;-67
2022/08/01 04:49:08;;;;;;;;;;;18.40;99.90;;;;;;5074169;28;19916;-68
2022/08/01 04:51:35;;;;;;;;;;;18.40;99.90;;;;;;5073810;28;19915;-68
2022/08/01 04:54:00;;;;;;;;;;;18.40;99.90;;;;;;5074057;28;19916;-68
2022/08/01 04:56:26;;;;;;;;;;;18.40;99.90;;;;;;5074062;28;19920;-68
2022/08/01 04:59:39;;;;;;;;;;;18.40;99.90;;;;;;5073735;28;19997;-68
2022/08/01 05:01:37;;;;;;;;;;;18.30;99.90;;;;;;5073532;28;19970;-68
2022/08/01 05:04:03;;;;;;;;;;;18.40;99.90;;;;;;5055642;28;20009;-68
2022/08/01 05:06:28;;;;;;;;;;;18.40;99.90;;;;;;5073711;28;19917;-68
2022/08/01 05:08:54;;;;;;;;;;;18.40;99.90;;;;;;5073912;28;19909;-67
2022/08/01 05:11:21;;;;;;;;;;;18.40;99.90;;;;;;5073589;28;20260;-68
2022/08/01 05:13:47;;;;;;;;;;;18.40;99.90;;;;;;5073820;28;20434;-68
2022/08/01 05:16:13;;;;;;;;;;;18.40;99.90;;;;;;5073595;28;19944;-68
2022/08/01 05:18:38;;;;;;;;;;;18.50;99.90;;;;;;5073513;28;20011;-67
2022/08/01 05:21:04;;;;;;;;;;;18.40;99.90;;;;;;5055900;28;19915;-68
2022/08/01 05:23:29;;;;;;;;;;;18.50;99.90;;;;;;5073286;28;20011;-68
2022/08/01 05:25:54;;;;;;;;;;;18.60;99.90;;;;;;5073802;28;20306;-67
2022/08/01 05:28:20;;;;;;;;;;;18.60;99.90;;;;;;5073729;28;19909;-68
2022/08/01 05:30:45;;;;;;;;;;;18.60;99.90;;;;;;5073384;28;19912;-67
2022/08/01 05:33:11;;;;;;;;;;;18.70;99.90;;;;;;5073446;28;19930;-68
2022/08/01 05:35:36;;;;;;;;;;;18.70;99.90;;;;;;5073608;28;19908;-68
2022/08/01 05:38:02;;;;;;;;;;;18.70;99.90;;;;;;5073346;28;19908;-68
2022/08/01 05:40:27;;;;;;;;;;;18.80;99.90;;;;;;5073288;28;19996;-68
2022/08/01 05:42:53;;;;;;;;;;;18.80;99.90;;;;;;5073428;28;19908;-68
2022/08/01 05:45:18;;;;;;;;;;;18.90;99.90;;;;;;5073338;28;20007;-67
2022/08/01 05:47:44;;;;;;;;;;;18.90;99.90;;;;;;5073487;28;19916;-68
2022/08/01 05:50:10;;;;;;;;;;;19.00;99.90;;;;;;5073211;28;19909;-68
2022/08/01 05:52:35;;;;;;;;;;;19.10;99.90;;;;;;5073117;28;19966;-68
2022/08/01 05:55:00;;;;;;;;;;;19.10;99.90;;;;;;5073226;28;19972;-68
2022/08/01 05:57:26;;;;;;;;;;;19.10;99.90;;;;;;5073174;28;19912;-68
2022/08/01 05:59:51;;;;;;;;;;;19.20;99.90;;;;;;5073098;28;20000;-68
2022/08/01 06:02:17;;;;;;;;;;;19.30;99.90;;;;;;5073060;28;19908;-68
2022/08/01 06:04:42;;;;;;;;;;;19.50;99.90;;;;;;5073001;28;19912;-68
2022/08/01 06:07:08;;;;;;;;;;;19.70;99.90;;;;;;5070707;28;19912;-68
2022/08/01 06:09:33;;;;;;;;;;;19.80;99.90;;;;;;5069168;28;20374;-68
2022/08/01 06:11:59;;;;;;;;;;;19.70;99.90;;;;;;5075947;28;19916;-68
2022/08/01 06:14:24;;;;;;;;;;;19.70;99.90;;;;;;5076832;28;19960;-68
2022/08/01 06:16:50;;;;;;;;;;;19.70;99.90;;;;;;5076652;28;20438;-68
2022/08/01 06:19:15;;;;;;;;;;;19.60;99.90;;;;;;5076514;28;19917;-68
2022/08/01 06:21:41;;;;;;;;;;;19.70;99.90;;;;;;5076405;28;19975;-68
2022/08/01 06:24:06;;;;;;;;;;;19.80;99.90;;;;;;5076198;28;20043;-68
2022/08/01 06:26:32;;;;;;;;;;;19.60;99.90;;;;;;5076704;28;19909;-68
2022/08/01 06:28:57;;;;;;;;;;;19.80;99.90;;;;;;5076555;28;19923;-67
2022/08/01 06:31:23;;;;;;;;;;;19.90;99.90;;;;;;5076117;28;20370;-68
2022/08/01 06:33:48;;;;;;;;;;;20.10;99.90;;;;;;5058394;28;20363;-68
2022/08/01 06:36:14;;;;;;;;;;;20.20;99.90;;;;;;5076161;28;19995;-68
2022/08/01 06:38:39;;;;;;;;;;;20.30;99.90;;;;;;5072650;28;19920;-68
2022/08/01 06:41:05;;;;;;;;;;;20.40;99.90;;;;;;5059221;28;20291;-68
2022/08/01 06:43:31;;;;;;;;;;;20.50;99.90;;;;;;5073405;28;19938;-68
2022/08/01 06:45:56;;;;;;;;;;;20.60;99.90;;;;;;5074902;28;19931;-67
2022/08/01 06:48:22;;;;;;;;;;;20.50;99.90;;;;;;5054985;28;20018;-67
2022/08/01 06:50:48;;;;;;;;;;;20.30;99.90;;;;;;5058493;28;19908;-68
2022/08/01 06:53:13;;;;;;;;;;;20.40;99.90;;;;;;5074591;28;19919;-68
2022/08/01 06:55:39;;;;;;;;;;;20.20;99.90;;;;;;5075837;28;20267;-68
2022/08/01 06:58:04;;;;;;;;;;;20.30;99.90;;;;;;5044222;28;19966;-68
2022/08/01 07:00:30;;;;;;;;;;;20.50;99.90;;;;;;5074069;28;19919;-68
2022/08/01 07:02:56;;;;;;;;;;;20.70;99.90;;;;;;5055629;28;19917;-68
2022/08/01 07:05:22;;;;;;;;;;;20.80;99.90;;;;;;5049033;28;19916;-68
2022/08/01 07:07:48;;;;;;;;;;;20.80;99.90;;;;;;5057175;28;19954;-68
2022/08/01 07:10:14;;;;;;;;;;;20.70;99.90;;;;;;5071650;28;19913;-68
2022/08/01 07:12:40;;;;;;;;;;;20.60;99.90;;;;;;5056776;28;19912;-68
2022/08/01 07:15:07;;;;;;;;;;;20.60;99.90;;;;;;5069355;28;19923;-68
2022/08/01 07:17:35;;;;;;;;;;;20.80;99.90;;;;;;5073641;28;19927;-68
2022/08/01 07:20:01;;;;;;;;;;;20.70;99.90;;;;;;5073623;28;19916;-68
2022/08/01 07:22:26;;;;;;;;;;;20.70;99.90;;;;;;5067533;28;19988;-67
2022/08/01 07:24:52;;;;;;;;;;;20.80;99.90;;;;;;5069805;28;19920;-68
2022/08/01 07:27:17;;;;;;;;;;;21.00;99.90;;;;;;5074590;28;19953;-68
2022/08/01 07:29:43;;;;;;;;;;;21.00;99.90;;;;;;5075227;28;19915;-68
2022/08/01 07:32:08;;;;;;;;;;;21.00;99.90;;;;;;5059765;28;20298;-68
2022/08/01 07:34:34;;;;;;;;;;;20.90;99.90;;;;;;5067510;28;19916;-68
2022/08/01 07:36:59;;;;;;;;;;;21.60;99.90;;;;;;5074972;28;19908;-68
2022/08/01 07:39:25;;;;;;;;;;;21.60;99.90;;;;;;5056282;28;19919;-68
2022/08/01 07:41:50;;;;;;;;;;;21.70;99.90;;;;;;5072649;28;20008;-68
2022/08/01 07:44:16;;;;;;;;;;;22.00;99.90;;;;;;5064582;28;19974;-68
2022/08/01 07:46:41;;;;;;;;;;;22.50;99.90;;;;;;5072700;28;20359;-68
2022/08/01 07:49:07;;;;;;;;;;;22.60;99.90;;;;;;5065237;28;19913;-68
2022/08/01 07:51:33;;;;;;;;;;;22.60;99.90;;;;;;5074470;28;20363;-68
2022/08/01 07:53:58;;;;;;;;;;;23.10;99.90;;;;;;5074283;28;19916;-68
2022/08/01 07:56:25;;;;;;;;;;;23.00;99.90;;;;;;5052152;28;19912;-69
2022/08/01 07:58:50;;;;;;;;;;;22.40;99.90;;;;;;5063829;28;20402;-68
2022/08/01 08:01:16;;;;;;;;;;;22.20;99.90;;;;;;5062844;28;19917;-68
2022/08/01 08:03:41;;;;;;;;;;;22.30;99.90;;;;;;5055548;28;19917;-68
2022/08/01 08:06:07;;;;;;;;;;;22.50;99.90;;;;;;5067644;28;19912;-69
2022/08/01 08:08:34;;;;;;;;;;;23.00;99.90;;;;;;5073002;28;20294;-68
2022/08/01 08:11:00;;;;;;;;;;;23.30;99.90;;;;;;5056662;28;19916;-68
2022/08/01 08:13:25;;;;;;;;;;;23.00;99.90;;;;;;5072361;28;19912;-68
2022/08/01 08:15:51;;;;;;;;;;;22.80;99.90;;;;;;5073559;28;19919;-69
2022/08/01 08:18:16;;;;;;;;;;;23.00;99.90;;;;;;5053123;28;19912;-68
2022/08/01 08:20:42;;;;;;;;;;;23.10;99.90;;;;;;5036128;28;19909;-68
2022/08/01 08:24:19;;;;;;;;;;;22.50;99.90;;;;;;5073786;28;19908;-68
2022/08/01 08:25:53;;;;;;;;;;;21.80;99.90;;;;;;5072592;28;20275;-67
2022/08/01 08:28:18;;;;;;;;;;;21.00;99.90;;;;;;5055518;28;20003;-68
2022/08/01 08:30:44;;;;;;;;;;;20.70;99.90;;;;;;5073179;28;20003;-68
2022/08/01 08:33:09;;;;;;;;;;;20.60;99.90;;;;;;5073676;28;19909;-68
2022/08/01 08:35:35;;;;;;;;;;;20.60;99.90;;;;;;5064958;28;19913;-67
2022/08/01 08:38:00;;;;;;;;;;;20.50;99.90;;;;;;5073356;28;19908;-68
2022/08/01 08:40:29;;;;;;;;;;;20.60;99.90;;;;;;5073344;28;20275;-68
2022/08/01 08:42:55;;;;;;;;;;;20.70;99.90;;;;;;5071940;28;20362;-68
2022/08/01 08:45:20;;;;;;;;;;;20.90;99.90;;;;;;5053177;28;19960;-68
2022/08/01 08:47:48;;;;;;;;;;;21.20;99.90;;;;;;5072336;28;19970;-69
2022/08/01 08:50:13;;;;;;;;;;;21.50;99.90;;;;;;5055520;28;19971;-69
2022/08/01 08:52:39;;;;;;;;;;;21.80;99.90;;;;;;5066683;28;20364;-68
2022/08/01 08:55:05;;;;;;;;;;;22.10;99.90;;;;;;5065994;28;19912;-69
2022/08/01 08:57:31;;;;;;;;;;;22.20;99.90;;;;;;5072492;28;19912;-69
2022/08/01 08:59:57;;;;;;;;;;;22.30;99.90;;;;;;5073740;28;20367;-69
2022/08/01 09:02:23;;;;;;;;;;;22.40;99.90;;;;;;5063616;28;19916;-69
2022/08/01 09:04:49;;;;;;;;;;;22.40;99.90;;;;;;5062966;28;19920;-69
2022/08/01 09:07:15;;;;;;;;;;;22.20;99.90;;;;;;5072217;28;19912;-69
2022/08/01 09:09:40;;;;;;;;;;;22.40;99.90;;;;;;5073606;28;20023;-69
2022/08/01 09:12:06;;;;;;;;;;;22.20;99.90;;;;;;5066991;28;19917;-69
2022/08/01 09:14:32;;;;;;;;;;;22.10;99.90;;;;;;5054193;28;19958;-69
2022/08/01 09:17:00;;;;;;;;;;;22.40;99.90;;;;;;5066634;28;19913;-69
2022/08/01 09:19:33;;;;;;;;;;;22.90;99.90;;;;;;5072185;28;19977;-69
2022/08/01 09:22:00;;;;;;;;;;;22.80;99.90;;;;;;5072870;28;19912;-69
2022/08/01 09:24:26;;;;;;;;;;;22.80;99.90;;;;;;5071310;28;20367;-69
2022/08/01 09:26:52;;;;;;;;;;;23.10;99.90;;;;;;5072308;28;19916;-69
2022/08/01 09:29:20;;;;;;;;;;;23.20;99.90;;;;;;5037982;28;19935;-69
2022/08/01 09:31:46;;;;;;;;;;;23.50;99.90;;;;;;5073194;28;19948;-69
2022/08/01 09:34:12;;;;;;;;;;;24.30;99.90;;;;;;5061092;28;19913;-69
2022/08/01 09:36:48;;;;;;;;;;;24.60;99.90;;;;;;5073166;28;20393;-69
2022/08/01 09:39:14;;;;;;;;;;;24.80;99.90;;;;;;5072102;28;19936;-69
2022/08/01 09:41:39;;;;;;;;;;;24.30;99.90;;;;;;5073371;28;20362;-69
2022/08/01 09:44:05;;;;;;;;;;;24.10;99.90;;;;;;5062039;28;20302;-69
2022/08/01 09:46:31;;;;;;;;;;;23.70;99.90;;;;;;5075291;28;19920;-69
2022/08/01 09:48:57;;;;;;;;;;;23.90;99.90;;;;;;5076753;28;19916;-69
2022/08/01 09:51:39;;;;;;;;;;;24.10;99.90;;;;;;5076533;28;19913;-69
2022/08/01 09:54:05;;;;;;;;;;;24.10;99.90;;;;;;5066458;28;20446;-69
2022/08/01 09:56:39;;;;;;;;;;;23.90;99.90;;;;;;5076353;28;19913;-68
2022/08/01 09:59:05;;;;;;;;;;;23.90;99.90;;;;;;5075849;28;19991;-68
2022/08/01 10:01:47;;;;;;;;;;;23.60;99.90;;;;;;5068507;28;19912;-68
2022/08/01 10:04:14;;;;;;;;;;;23.30;99.90;;;;;;5059493;28;19916;-68
2022/08/01 10:06:42;;;;;;;;;;;22.80;99.90;;;;;;5075410;28;20408;-69
2022/08/01 10:09:08;;;;;;;;;;;23.00;99.90;;;;;;5075089;28;20375;-68
2022/08/01 10:11:36;;;;;;;;;;;23.00;99.90;;;;;;5073429;28;19958;-68
2022/08/01 10:14:02;;;;;;;;;;;23.40;99.90;;;;;;5056149;28;19999;-69
2022/08/01 10:16:28;;;;;;;;;;;24.30;99.90;;;;;;5072228;28;19962;-69
2022/08/01 10:18:54;;;;;;;;;;;24.70;99.90;;;;;;5057887;28;19913;-69
2022/08/01 10:21:20;;;;;;;;;;;24.90;99.90;;;;;;5076354;28;19958;-68
2022/08/01 10:23:46;;;;;;;;;;;25.30;99.90;;;;;;5071361;28;19924;-68
2022/08/01 10:26:11;;;;;;;;;;;25.90;99.90;;;;;;5093960;28;19946;-68
2022/08/01 10:28:37;;;;;;;;;;;27.60;99.90;;;;;;5093733;28;20385;-67
2022/08/01 10:31:03;;;;;;;;;;;27.80;99.90;;;;;;5062518;28;19912;-69
2022/08/01 10:33:29;;;;;;;;;;;27.60;99.90;;;;;;5056577;28;19916;-68
2022/08/01 10:35:54;;;;;;;;;;;27.40;99.90;;;;;;5075451;28;20276;-68
2022/08/01 10:38:20;;;;;;;;;;;26.40;99.90;;;;;;5072660;28;20007;-67
2022/08/01 10:40:45;;;;;;;;;;;25.70;99.90;;;;;;5074271;28;19920;-67
2022/08/01 10:43:11;;;;;;;;;;;25.60;99.90;;;;;;5075537;28;19958;-68
2022/08/01 10:45:37;;;;;;;;;;;25.40;99.90;;;;;;5076125;28;20294;-68
2022/08/01 10:48:11;;;;;;;;;;;25.40;99.90;;;;;;5075941;28;19908;-67
2022/08/01 10:50:39;;;;;;;;;;;25.80;99.90;;;;;;5065381;28;19942;-68
2022/08/01 10:53:07;;;;;;;;;;;25.30;99.90;;;;;;5075958;28;19959;-68
2022/08/01 10:55:45;;;;;;;;;;;24.40;99.90;;;;;;5075329;28;19920;-68
2022/08/01 10:58:10;;;;;;;;;;;25.20;99.90;;;;;;5075250;28;19909;-68
2022/08/01 11:00:43;;;;;;;;;;;25.60;99.90;;;;;;5066306;28;19928;-69
2022/08/01 11:03:08;;;;;;;;;;;25.70;99.90;;;;;;5075904;28;19912;-69
2022/08/01 11:05:35;;;;;;;;;;;25.90;99.90;;;;;;5074324;28;19970;-68
2022/08/01 11:08:03;;;;;;;;;;;25.00;99.90;;;;;;5064054;28;20375;-68
2022/08/01 11:10:36;;;;;;;;;;;25.50;99.90;;;;;;5070324;28;19999;-68
2022/08/01 11:13:05;;;;;;;;;;;25.30;99.90;;;;;;5074681;28;19913;-68
2022/08/01 11:15:31;;;;;;;;;;;25.30;99.90;;;;;;5074963;28;20263;-68
2022/08/01 11:17:57;;;;;;;;;;;25.50;99.90;;;;;;5064839;28;19920;-68
2022/08/01 11:20:24;;;;;;;;;;;25.40;99.90;;;;;;5069290;28;19960;-68
2022/08/01 11:23:07;;;;;;;;;;;24.50;99.90;;;;;;5066696;28;19913;-68
2022/08/01 11:25:40;;;;;;;;;;;24.40;99.90;;;;;;5072963;28;19921;-67
2022/08/01 11:28:25;;;;;;;;;;;24.10;99.90;;;;;;5061994;28;20279;-68
2022/08/01 11:31:11;;;;;;;;;;;24.00;99.90;;;;;;5073612;28;20246;-67
2022/08/01 11:36:20;;;;;;;;;;;24.70;99.90;;;;;;5131119;27;19916;-68
2022/08/01 11:38:47;;;;;;;;;;;24.90;99.90;;;;;;5131796;28;19912;-69
2022/08/01 11:41:14;;;;;;;;;;;25.40;99.90;;;;;;5122174;28;19908;-68
2022/08/01 11:44:00;;;;;;;;;;;25.00;99.90;;;;;;5102785;28;20082;-67
2022/08/01 11:46:45;;;;;;;;;;;24.10;99.90;;;;;;5131101;28;20388;-67
2022/08/01 11:49:39;;;;;;;;;;;24.30;99.90;;;;;;5125295;28;20392;-67
2022/08/01 11:52:25;;;;;;;;;;;24.70;99.90;;;;;;5115694;28;19911;-67
2022/08/01 11:54:52;;;;;;;;;;;24.10;99.90;;;;;;5108174;28;20290;-67
2022/08/01 11:57:19;;;;;;;;;;;24.10;99.90;;;;;;5110010;28;19920;-67
2022/08/01 11:59:48;;;;;;;;;;;23.80;99.90;;;;;;5110136;28;19908;-68
2022/08/01 12:02:15;;;;;;;;;;;24.10;99.90;;;;;;5127748;28;19998;-67
2022/08/01 12:04:44;;;;;;;;;;;24.40;99.90;;;;;;5118730;28;19909;-67
2022/08/01 12:07:11;;;;;;;;;;;24.10;99.90;;;;;;5111718;28;20302;-67
2022/08/01 12:09:37;;;;;;;;;;;23.90;99.90;;;;;;5110346;28;20048;-67
2022/08/01 12:12:02;;;;;;;;;;;23.90;99.90;;;;;;5110606;28;19949;-68
2022/08/01 12:14:28;;;;;;;;;;;24.20;99.90;;;;;;5109290;28;20393;-68
2022/08/01 12:16:54;;;;;;;;;;;24.70;99.90;;;;;;5110292;28;20383;-67
2022/08/01 12:19:23;;;;;;;;;;;24.90;99.90;;;;;;5110564;28;19916;-67
2022/08/01 12:22:08;;;;;;;;;;;24.60;99.90;;;;;;5110188;28;19915;-67
2022/08/01 12:24:35;;;;;;;;;;;23.90;99.90;;;;;;5110279;28;20284;-68
2022/08/01 12:27:00;;;;;;;;;;;24.30;99.90;;;;;;5110219;28;19908;-67
2022/08/01 12:29:33;;;;;;;;;;;24.10;99.90;;;;;;5110232;28;20003;-67
2022/08/01 12:31:59;;;;;;;;;;;23.90;99.90;;;;;;5110331;28;19912;-67
2022/08/01 12:34:25;;;;;;;;;;;24.40;99.90;;;;;;5114415;28;20282;-67
2022/08/01 12:36:51;;;;;;;;;;;24.40;99.90;;;;;;5130603;28;19908;-67
2022/08/01 12:39:17;;;;;;;;;;;24.20;99.90;;;;;;5118219;28;19949;-66
2022/08/01 12:41:43;;;;;;;;;;;23.80;99.90;;;;;;5116387;28;20361;-67
2022/08/01 12:44:14;;;;;;;;;;;24.00;99.90;;;;;;5128512;28;20434;-67
2022/08/01 12:46:40;;;;;;;;;;;24.40;99.90;;;;;;5106385;28;19923;-68
2022/08/01 12:49:05;;;;;;;;;;;24.80;99.90;;;;;;5096202;28;20267;-67
2022/08/01 12:51:31;;;;;;;;;;;25.10;99.90;;;;;;5096098;28;20365;-67
2022/08/01 12:53:58;;;;;;;;;;;25.40;99.90;;;;;;5096312;28;19919;-68
2022/08/01 12:56:31;;;;;;;;;;;25.40;99.90;;;;;;5099101;28;19920;-68
2022/08/01 12:58:56;;;;;;;;;;;25.00;99.90;;;;;;5114892;28;19964;-68
2022/08/01 13:01:25;;;;;;;;;;;24.70;99.90;;;;;;5096005;28;19999;-67
2022/08/01 13:04:06;;;;;;;;;;;24.40;99.90;;;;;;5095862;28;20278;-67
2022/08/01 13:06:32;;;;;;;;;;;24.70;99.90;;;;;;5098887;27;19919;-67
2022/08/01 13:09:05;;;;;;;;;;;24.70;99.90;;;;;;5114431;28;19919;-68
2022/08/01 13:11:31;;;;;;;;;;;24.40;99.90;;;;;;5095566;28;20002;-66
2022/08/01 13:13:56;;;;;;;;;;;24.10;99.90;;;;;;5095494;28;19958;-66
2022/08/01 13:16:23;;;;;;;;;;;23.80;99.90;;;;;;5113998;28;19911;-67
2022/08/01 13:18:50;;;;;;;;;;;23.50;99.90;;;;;;5116304;28;20323;-67
2022/08/01 13:21:17;;;;;;;;;;;23.40;99.90;;;;;;5097230;28;19959;-66
2022/08/01 13:24:00;;;;;;;;;;;23.70;99.90;;;;;;5095084;28;20340;-67
2022/08/01 13:26:42;;;;;;;;;;;24.00;99.90;;;;;;5096120;28;19919;-67
2022/08/01 13:29:09;;;;;;;;;;;24.10;99.90;;;;;;5114616;28;19934;-67
2022/08/01 13:31:39;;;;;;;;;;;24.60;99.90;;;;;;5105046;28;20278;-68
2022/08/01 13:34:05;;;;;;;;;;;24.70;99.90;;;;;;5074291;28;19995;-66
2022/08/01 13:36:31;;;;;;;;;;;24.90;99.90;;;;;;5075137;28;20305;-67
2022/08/01 13:41:43;;;;;;;;;;;25.20;99.90;;;;;;5115120;28;19908;-67
2022/08/01 13:44:10;;;;;;;;;;;24.90;99.90;;;;;;5094811;28;19937;-66
2022/08/01 13:46:38;;;;;;;;;;;24.20;99.90;;;;;;5095301;28;19912;-65
2022/08/01 13:49:04;;;;;;;;;;;24.20;99.90;;;;;;5112100;28;20040;-67
2022/08/01 13:51:29;;;;;;;;;;;24.30;99.90;;;;;;5113839;28;19943;-65
2022/08/01 13:53:55;;;;;;;;;;;24.30;99.90;;;;;;5108803;28;19912;-65
2022/08/01 13:56:20;;;;;;;;;;;24.50;99.90;;;;;;5095436;28;19912;-66
2022/08/01 13:58:46;;;;;;;;;;;24.50;99.90;;;;;;5101065;28;20007;-65
2022/08/01 14:01:12;;;;;;;;;;;24.90;99.90;;;;;;5114969;28;20350;-66
2022/08/01 14:03:37;;;;;;;;;;;24.80;99.90;;;;;;5109506;28;19920;-65
2022/08/01 14:06:03;;;;;;;;;;;24.40;99.90;;;;;;5094531;28;19919;-65
2022/08/01 14:08:28;;;;;;;;;;;24.50;99.90;;;;;;5097873;28;19912;-65
2022/08/01 14:10:57;;;;;;;;;;;24.40;99.90;;;;;;5114979;28;19908;-66
2022/08/01 14:13:22;;;;;;;;;;;24.80;99.90;;;;;;5111122;28;19913;-65
2022/08/01 14:15:49;;;;;;;;;;;25.00;99.90;;;;;;5102059;28;19962;-65
2022/08/01 14:18:15;;;;;;;;;;;24.90;99.90;;;;;;5094400;28;20019;-65
2022/08/01 14:20:40;;;;;;;;;;;24.80;99.90;;;;;;5094468;28;19963;-66
2022/08/01 14:23:06;;;;;;;;;;;24.40;99.90;;;;;;5081827;28;20450;-66
2022/08/01 14:25:32;;;;;;;;;;;24.70;99.90;;;;;;5090347;28;19920;-65